createdAt,value
2019-02-21T11:44:01.151Z,5945
2019-02-21T13:18:57.387Z,3422
2019-02-21T13:19:05.241Z,3314
2019-02-21T13:19:13.151Z,3209
2019-02-21T13:19:21.197Z,3102
2019-02-21T13:19:29.029Z,3002
2019-02-21T13:19:36.906Z,2909
2019-02-21T13:19:45.844Z,2809
2019-02-21T13:19:54.359Z,2724
2019-02-21T13:20:02.256Z,2656
2019-02-21T13:20:10.160Z,2591
2019-02-21T13:20:19.050Z,2547
2019-02-21T13:20:26.996Z,2494
2019-02-21T13:20:34.882Z,2454
2019-02-21T13:20:42.761Z,2430
2019-02-21T13:20:51.301Z,2399
2019-02-21T13:20:59.171Z,2394
2019-02-21T13:21:07.789Z,2406
2019-02-21T13:21:16.675Z,2439
2019-02-21T13:21:24.598Z,2489
2019-02-21T13:21:32.538Z,2558
2019-02-21T13:21:40.432Z,2645
2019-02-21T13:21:49.308Z,2753
2019-02-21T13:21:57.260Z,2852
2019-02-21T13:22:05.178Z,2947
2019-02-21T13:22:14.093Z,3041
2019-02-21T13:22:21.982Z,3126
2019-02-21T13:22:29.931Z,3205
2019-02-21T13:22:37.931Z,3264
2019-02-21T13:22:45.895Z,3295
2019-02-21T13:22:53.786Z,3306
2019-02-21T13:23:01.769Z,3299
2019-02-21T13:23:10.660Z,3277
2019-02-21T13:23:18.691Z,3247
2019-02-21T13:23:26.620Z,3224
2019-02-21T13:23:34.602Z,3216
2019-02-21T13:23:44.527Z,3189
2019-02-21T13:23:52.441Z,3128
2019-02-21T13:24:00.322Z,3127
2019-02-21T13:24:08.203Z,3151
2019-02-21T13:24:16.108Z,3206
2019-02-21T13:24:24.025Z,3223
2019-02-21T13:24:32.957Z,3239
2019-02-21T13:24:42.869Z,3254
2019-02-21T13:24:51.639Z,3285
2019-02-21T13:24:59.613Z,3332
2019-02-21T13:25:07.564Z,3358
2019-02-21T13:25:15.554Z,3401
2019-02-21T13:25:23.535Z,3438
2019-02-21T13:25:31.420Z,3416
2019-02-21T13:25:40.415Z,3418
2019-02-21T13:25:50.313Z,3446
2019-02-21T13:25:58.511Z,3474
2019-02-21T13:26:07.364Z,3517
2019-02-21T13:26:15.336Z,3541
2019-02-21T13:26:23.320Z,3556
2019-02-21T13:26:31.208Z,3594
2019-02-21T13:26:39.092Z,3659
2019-02-21T13:26:47.180Z,3710
2019-02-21T13:26:55.127Z,3745
